Time;durP1;ratioP1;P1;durP2;ratioP2;P2;SDS_P1;SDS_P2;PMS_P1;PMS_P2;Temp;Humidity;BMP_temperature;BMP_pressure;BME280_temperature;BME280_humidity;BME280_pressure;Samples;Min_cycle;Max_cycle;Signal;HPM_P1;HPM_P2
2022/05/23 00:02:06;;;;;;;1.67;0.70;;;19.40;46.90;;;;;;2338478;54;20951;-74
2022/05/23 00:04:32;;;;;;;2.53;0.88;;;19.30;47.00;;;;;;2337993;54;21239;-73
2022/05/23 00:06:59;;;;;;;1.55;0.70;;;19.30;47.10;;;;;;2561156;53;21529;-74
2022/05/23 00:09:25;;;;;;;1.75;0.80;;;19.30;47.10;;;;;;2338583;54;20924;-75
2022/05/23 00:11:52;;;;;;;2.45;0.85;;;19.30;47.20;;;;;;2441039;53;21726;-73
2022/05/23 00:14:18;;;;;;;1.67;0.70;;;19.20;47.20;;;;;;2384798;53;21818;-73
2022/05/23 00:16:46;;;;;;;2.58;1.00;;;19.20;47.20;;;;;;2327493;54;21291;-74
2022/05/23 00:19:13;;;;;;;2.50;0.90;;;19.20;47.30;;;;;;2322550;54;21003;-73
2022/05/23 00:21:41;;;;;;;1.95;0.82;;;19.20;47.30;;;;;;2329561;54;20949;-73
2022/05/23 00:24:08;;;;;;;2.17;0.90;;;19.20;47.40;;;;;;2323439;54;20969;-73
2022/05/23 00:26:34;;;;;;;2.55;0.90;;;19.20;47.50;;;;;;2330327;54;20975;-72
2022/05/23 00:29:03;;;;;;;2.70;0.90;;;19.20;47.40;;;;;;2328707;54;20993;-74
2022/05/23 00:31:30;;;;;;;1.67;0.73;;;19.20;47.50;;;;;;2322321;54;20969;-74
2022/05/23 00:36:44;;;;;;;2.28;0.80;;;19.20;47.50;;;;;;2325965;54;21017;-73
2022/05/23 00:39:10;;;;;;;2.53;0.98;;;19.20;47.50;;;;;;2493920;53;20943;-73
2022/05/23 00:44:31;;;;;;;2.25;0.90;;;19.10;47.70;;;;;;2327818;54;20997;-73
2022/05/23 00:47:16;;;;;;;3.00;1.08;;;19.10;47.60;;;;;;2333911;54;20880;-72
2022/05/23 00:49:43;;;;;;;2.10;1.00;;;19.10;47.90;;;;;;2336486;54;20969;-72
2022/05/23 00:52:13;;;;;;;1.73;0.70;;;19.10;47.60;;;;;;2324927;54;20963;-74
2022/05/23 00:54:40;;;;;;;1.80;0.80;;;19.10;47.80;;;;;;2338358;54;20915;-73
2022/05/23 00:57:09;;;;;;;1.67;0.70;;;19.10;47.80;;;;;;2584307;53;20951;-73
2022/05/23 00:59:36;;;;;;;1.92;0.88;;;19.10;47.90;;;;;;2341800;54;21086;-76
2022/05/23 01:02:02;;;;;;;2.15;0.80;;;19.10;47.80;;;;;;2334493;54;20993;-72
2022/05/23 01:04:30;;;;;;;1.65;0.70;;;19.10;47.90;;;;;;2327739;54;20971;-74
2022/05/23 01:06:56;;;;;;;2.15;0.80;;;19.00;47.90;;;;;;2442307;53;20987;-74
2022/05/23 01:09:25;;;;;;;2.58;0.80;;;19.00;48.10;;;;;;2338357;54;21067;-73
2022/05/23 01:11:55;;;;;;;2.83;0.90;;;19.00;48.10;;;;;;2336249;54;20989;-74
2022/05/23 01:14:43;;;;;;;2.08;0.80;;;19.00;48.30;;;;;;2389028;54;21333;-73
2022/05/23 01:17:09;;;;;;;2.03;0.80;;;19.00;48.40;;;;;;2339323;54;20961;-73
2022/05/23 01:19:35;;;;;;;2.17;0.88;;;19.00;48.30;;;;;;2322477;54;21142;-73
2022/05/23 01:22:14;;;;;;;1.40;0.65;;;19.00;48.40;;;;;;2338978;54;20947;-73
2022/05/23 01:26:03;;;;;;;1.55;0.70;;;19.00;48.60;;;;;;2339562;53;21467;-74
2022/05/23 01:28:33;;;;;;;1.65;0.70;;;19.00;48.90;;;;;;2332239;54;21065;-73
2022/05/23 01:31:00;;;;;;;1.77;0.70;;;19.00;48.60;;;;;;2326116;54;21542;-73
2022/05/23 01:33:26;;;;;;;1.83;0.70;;;19.00;48.60;;;;;;2337854;54;20999;-74
2022/05/23 01:35:52;;;;;;;1.62;0.70;;;19.00;48.70;;;;;;2378075;53;21027;-73
2022/05/23 01:38:19;;;;;;;3.80;0.73;;;19.00;48.70;;;;;;2319082;54;20938;-74
2022/05/23 01:40:47;;;;;;;2.58;0.80;;;19.00;48.80;;;;;;2583336;53;20955;-73
2022/05/23 01:43:16;;;;;;;1.58;0.70;;;19.00;48.90;;;;;;2370527;54;21501;-73
2022/05/23 01:45:43;;;;;;;1.52;0.70;;;19.00;49.00;;;;;;2511755;53;20891;-75
2022/05/23 01:48:11;;;;;;;1.40;0.70;;;19.00;49.00;;;;;;2327811;54;21000;-73
2022/05/23 01:50:37;;;;;;;3.03;0.90;;;19.00;49.00;;;;;;2323472;54;20960;-73
2022/05/23 01:53:03;;;;;;;1.98;0.80;;;19.10;49.20;;;;;;2338808;54;20916;-75
2022/05/23 01:55:30;;;;;;;2.33;1.00;;;19.10;49.20;;;;;;2339001;54;20979;-73
2022/05/23 01:57:56;;;;;;;1.90;0.90;;;19.10;49.20;;;;;;2347073;53;20980;-74
2022/05/23 02:03:07;;;;;;;2.08;1.00;;;19.10;49.30;;;;;;2329896;54;20967;-73
2022/05/23 02:05:34;;;;;;;1.77;0.73;;;19.10;49.30;;;;;;2557311;53;20947;-74
2022/05/23 02:08:02;;;;;;;2.28;0.90;;;19.10;49.30;;;;;;2332165;54;21446;-76
2022/05/23 02:10:29;;;;;;;1.80;0.75;;;19.10;49.30;;;;;;2304617;55;21427;-73
2022/05/23 02:12:56;;;;;;;2.55;1.02;;;19.10;49.30;;;;;;2339067;54;20911;-73
2022/05/23 02:15:22;;;;;;;3.03;1.10;;;19.10;49.40;;;;;;2330583;54;21050;-73
2022/05/23 02:17:48;;;;;;;2.37;1.00;;;19.10;49.40;;;;;;2338351;54;20932;-73
2022/05/23 02:20:15;;;;;;;3.60;1.05;;;19.10;49.40;;;;;;2338636;54;20967;-73
2022/05/23 02:22:41;;;;;;;1.85;0.77;;;19.10;50.10;;;;;;2338682;54;20936;-74
2022/05/23 02:25:09;;;;;;;1.67;0.77;;;19.10;49.60;;;;;;2322804;55;20999;-73
2022/05/23 02:27:35;;;;;;;1.73;0.70;;;19.10;49.80;;;;;;2390950;53;20927;-73
2022/05/23 02:30:02;;;;;;;2.20;0.88;;;19.10;49.80;;;;;;2323103;54;21500;-76
2022/05/23 02:32:29;;;;;;;2.65;0.85;;;19.10;49.80;;;;;;2338291;54;20971;-73
2022/05/23 02:34:55;;;;;;;2.37;1.05;;;19.10;49.90;;;;;;2330959;54;21692;-73
2022/05/23 02:37:21;;;;;;;1.65;0.80;;;19.10;50.00;;;;;;2330816;54;20927;-74
2022/05/23 02:39:48;;;;;;;2.05;0.98;;;19.10;50.00;;;;;;2338477;54;20912;-73
2022/05/23 02:42:14;;;;;;;1.98;0.90;;;19.20;50.10;;;;;;2336793;54;21061;-75
2022/05/23 02:44:40;;;;;;;2.00;0.80;;;19.20;50.20;;;;;;2324008;54;21329;-73
2022/05/23 02:47:06;;;;;;;2.37;0.95;;;19.20;50.20;;;;;;2338434;54;20875;-73
2022/05/23 02:49:33;;;;;;;2.60;0.98;;;19.30;50.20;;;;;;2338237;54;21082;-74
2022/05/23 02:51:59;;;;;;;1.58;0.80;;;19.30;50.20;;;;;;2368169;53;20971;-74
2022/05/23 02:54:26;;;;;;;1.70;0.70;;;19.30;50.30;;;;;;2330158;54;21005;-73
2022/05/23 02:56:52;;;;;;;1.50;0.68;;;19.30;50.20;;;;;;2330602;54;20971;-74
2022/05/23 02:59:18;;;;;;;2.55;1.23;;;19.40;50.20;;;;;;2338115;54;20908;-75
2022/05/23 03:04:30;;;;;;;2.35;1.02;;;19.40;50.60;;;;;;2338383;54;21381;-73
2022/05/23 03:06:57;;;;;;;1.42;0.80;;;19.50;50.40;;;;;;2410447;53;21397;-75
2022/05/23 03:09:23;;;;;;;2.37;0.80;;;19.50;50.40;;;;;;2325521;54;20900;-73
2022/05/23 03:11:49;;;;;;;1.70;0.80;;;19.50;50.40;;;;;;2441844;53;20895;-74
2022/05/23 03:14:16;;;;;;;2.33;0.80;;;19.50;50.40;;;;;;2338296;54;20926;-73
2022/05/23 03:16:42;;;;;;;1.77;0.88;;;19.50;50.40;;;;;;2338448;54;20976;-73
2022/05/23 03:19:10;;;;;;;2.35;0.95;;;19.50;50.40;;;;;;2338229;54;21835;-74
2022/05/23 03:27:05;;;;;;;2.15;0.88;;;19.60;50.40;;;;;;2540428;53;20981;-72
2022/05/23 03:29:32;;;;;;;2.60;1.10;;;19.60;50.50;;;;;;2338089;54;20924;-73
2022/05/23 03:31:58;;;;;;;2.08;1.00;;;19.70;50.50;;;;;;2338008;54;21305;-74
2022/05/23 03:34:24;;;;;;;2.22;1.10;;;19.60;50.50;;;;;;2338313;54;21220;-74
2022/05/23 03:36:50;;;;;;;2.53;0.98;;;19.70;50.60;;;;;;2338376;54;21160;-73
2022/05/23 03:39:16;;;;;;;2.55;1.12;;;19.70;50.60;;;;;;2315937;54;20963;-74
2022/05/23 03:41:43;;;;;;;2.30;1.00;;;19.70;50.60;;;;;;2315545;54;20959;-73
2022/05/23 03:44:09;;;;;;;3.08;0.93;;;19.80;50.60;;;;;;2315574;55;20971;-73
2022/05/23 03:46:36;;;;;;;2.00;0.90;;;19.80;50.60;;;;;;2315688;54;20999;-74
2022/05/23 03:49:02;;;;;;;2.12;0.90;;;19.80;50.60;;;;;;2315925;54;20967;-74
2022/05/23 03:51:29;;;;;;;2.10;0.80;;;19.80;50.50;;;;;;2315602;55;21027;-75
2022/05/23 03:53:55;;;;;;;1.83;0.80;;;19.80;50.40;;;;;;2315987;55;21445;-75
2022/05/23 03:56:21;;;;;;;2.45;0.85;;;19.80;50.40;;;;;;2425231;54;21027;-74
2022/05/23 03:58:48;;;;;;;2.60;1.12;;;19.80;50.50;;;;;;2296652;55;21404;-74
2022/05/23 04:01:21;;;;;;;1.85;0.90;;;19.80;50.50;;;;;;2376060;54;21481;-74
2022/05/23 04:03:47;;;;;;;3.83;1.08;;;19.90;50.60;;;;;;2464360;54;21782;-74
2022/05/23 04:06:13;;;;;;;2.37;1.10;;;19.90;50.60;;;;;;2309930;54;21500;-75
2022/05/23 04:08:40;;;;;;;3.78;0.82;;;19.90;50.60;;;;;;2316566;54;20927;-74
2022/05/23 04:11:06;;;;;;;4.12;1.27;;;19.90;50.50;;;;;;2324630;54;20995;-74
2022/05/23 04:13:32;;;;;;;2.10;0.90;;;19.90;50.50;;;;;;2531059;53;21735;-74
2022/05/23 04:15:59;;;;;;;4.97;1.25;;;19.90;50.50;;;;;;2336448;54;20971;-73
2022/05/23 04:18:25;;;;;;;2.33;1.00;;;20.00;50.60;;;;;;2321281;54;21469;-75
2022/05/23 04:20:51;;;;;;;2.20;0.90;;;19.90;50.40;;;;;;2339013;54;21466;-74
2022/05/23 04:23:17;;;;;;;2.25;0.95;;;20.00;50.50;;;;;;2340428;54;20932;-74
2022/05/23 04:25:45;;;;;;;2.33;0.82;;;20.00;50.60;;;;;;2333748;54;21573;-74
2022/05/23 04:28:12;;;;;;;1.70;0.82;;;20.10;50.70;;;;;;2328545;54;21608;-75
2022/05/23 04:30:38;;;;;;;2.40;1.00;;;20.10;50.60;;;;;;2330434;54;21433;-74
2022/05/23 04:35:50;;;;;;;2.47;1.00;;;20.10;50.60;;;;;;2323881;54;21054;-74
2022/05/23 04:38:17;;;;;;;3.95;0.93;;;20.20;50.70;;;;;;2339347;54;20991;-75
2022/05/23 04:40:43;;;;;;;2.60;1.00;;;20.20;50.70;;;;;;2341424;54;21357;-74
2022/05/23 04:43:09;;;;;;;2.10;0.90;;;20.20;50.70;;;;;;2319388;54;20967;-75
2022/05/23 04:45:36;;;;;;;2.03;0.90;;;20.30;51.10;;;;;;2327706;54;21005;-74
2022/05/23 04:50:47;;;;;;;2.00;0.80;;;20.40;51.00;;;;;;2337899;54;21526;-74
2022/05/23 04:53:13;;;;;;;2.40;0.95;;;20.50;51.00;;;;;;2338188;54;21723;-74
2022/05/23 04:55:41;;;;;;;2.80;1.02;;;20.50;51.00;;;;;;2529622;54;21030;-78
2022/05/23 04:58:08;;;;;;;3.35;1.00;;;20.60;51.10;;;;;;2331202;54;21440;-74
2022/05/23 05:00:34;;;;;;;2.00;1.00;;;20.70;51.20;;;;;;2316937;54;20959;-74
2022/05/23 05:03:04;;;;;;;2.12;0.88;;;20.70;51.20;;;;;;2319899;53;21007;-77
2022/05/23 05:05:30;;;;;;;2.80;1.10;;;20.80;51.30;;;;;;2313847;55;20999;-73
2022/05/23 05:07:57;;;;;;;2.60;0.98;;;20.90;51.40;;;;;;2437156;54;21471;-74
2022/05/23 05:10:23;;;;;;;2.80;1.25;;;20.90;51.30;;;;;;2422422;53;20928;-76
2022/05/23 05:12:50;;;;;;;3.92;1.80;;;21.00;51.30;;;;;;2337754;54;20975;-74
2022/05/23 05:15:17;;;;;;;3.62;1.60;;;21.00;51.20;;;;;;2295831;55;21003;-74
2022/05/23 05:17:44;;;;;;;3.53;1.50;;;21.10;51.20;;;;;;2343169;54;21041;-74
2022/05/23 05:20:14;;;;;;;2.65;1.30;;;21.20;51.10;;;;;;2320908;54;20968;-74
2022/05/23 05:22:40;;;;;;;3.05;1.35;;;21.20;51.10;;;;;;2554372;54;21356;-74
2022/05/23 05:25:08;;;;;;;2.97;1.17;;;21.30;51.20;;;;;;2318128;54;21070;-74
2022/05/23 05:27:34;;;;;;;2.58;1.12;;;21.30;51.10;;;;;;2338901;54;20939;-74
2022/05/23 05:30:01;;;;;;;2.00;0.90;;;21.40;51.10;;;;;;2321883;54;21080;-73
2022/05/23 05:32:44;;;;;;;2.53;1.00;;;21.40;51.10;;;;;;2333006;54;20969;-74
2022/05/23 05:35:22;;;;;;;4.62;1.17;;;21.50;51.30;;;;;;2326538;54;21458;-73
2022/05/23 05:37:52;;;;;;;2.47;1.20;;;21.60;51.30;;;;;;2328923;54;21372;-77
2022/05/23 05:40:20;;;;;;;3.10;1.12;;;21.60;51.00;;;;;;2339212;53;20931;-74
2022/05/23 05:42:49;;;;;;;2.78;1.10;;;21.70;51.00;;;;;;2338535;54;20963;-74
2022/05/23 05:45:18;;;;;;;5.60;1.15;;;21.80;50.90;;;;;;2332115;54;21873;-74
2022/05/23 05:47:45;;;;;;;2.67;1.10;;;21.80;50.70;;;;;;2328859;54;21084;-74
2022/05/23 05:50:20;;;;;;;3.12;1.15;;;21.90;50.70;;;;;;2323144;54;21009;-75
2022/05/23 05:52:46;;;;;;;4.43;1.00;;;21.90;50.60;;;;;;2325099;54;21053;-74
2022/05/23 05:55:12;;;;;;;3.75;1.20;;;22.00;50.60;;;;;;2323737;54;21152;-73
2022/05/23 05:57:38;;;;;;;4.35;1.25;;;22.00;50.60;;;;;;2339706;54;20956;-74
2022/05/23 06:00:06;;;;;;;2.58;1.08;;;22.10;50.60;;;;;;2583548;53;21309;-74
2022/05/23 06:02:33;;;;;;;2.60;1.00;;;22.10;50.60;;;;;;2338543;54;20951;-78
2022/05/23 06:04:59;;;;;;;2.78;1.30;;;22.20;50.70;;;;;;2338412;54;20964;-76
2022/05/23 06:13:00;;;;;;;3.10;1.10;;;22.30;50.70;;;;;;2338473;54;20908;-74
2022/05/23 06:15:27;;;;;;;2.72;1.10;;;22.40;50.80;;;;;;2476137;53;20935;-76
2022/05/23 06:17:53;;;;;;;3.05;0.90;;;22.40;50.70;;;;;;2583663;53;20915;-74
2022/05/23 06:20:20;;;;;;;2.72;0.88;;;22.40;50.80;;;;;;2341777;54;20904;-74
2022/05/23 06:22:46;;;;;;;2.95;1.10;;;22.40;50.80;;;;;;2472337;54;20923;-76
2022/05/23 06:25:13;;;;;;;2.30;1.10;;;22.50;50.90;;;;;;2498774;53;20953;-74
2022/05/23 06:27:40;;;;;;;2.47;1.10;;;22.50;50.90;;;;;;2315123;55;21013;-75
2022/05/23 06:30:07;;;;;;;2.45;1.02;;;22.50;50.90;;;;;;2555772;54;20921;-74
2022/05/23 06:32:33;;;;;;;2.45;1.00;;;22.50;50.90;;;;;;2315731;56;20937;-76
2022/05/23 06:34:59;;;;;;;2.75;1.00;;;22.50;50.90;;;;;;2315829;54;21045;-74
2022/05/23 06:37:28;;;;;;;2.47;0.98;;;22.60;51.00;;;;;;2395804;54;21523;-76
2022/05/23 06:39:55;;;;;;;2.33;1.00;;;22.60;50.90;;;;;;2316271;54;21075;-74
2022/05/23 06:42:21;;;;;;;2.85;1.30;;;22.60;50.90;;;;;;2316028;54;21012;-74
2022/05/23 06:44:51;;;;;;;2.42;0.88;;;22.70;50.90;;;;;;2320315;54;21063;-76
2022/05/23 06:47:17;;;;;;;2.03;0.90;;;22.70;50.80;;;;;;2334705;54;21819;-77
2022/05/23 06:49:44;;;;;;;3.12;1.10;;;22.70;50.80;;;;;;2338596;54;20975;-76
2022/05/23 06:52:10;;;;;;;2.53;1.12;;;22.70;50.70;;;;;;2338574;54;20967;-74
2022/05/23 06:54:36;;;;;;;2.17;0.93;;;22.70;50.60;;;;;;2338178;54;21443;-73
2022/05/23 06:57:03;;;;;;;7.57;1.23;;;22.80;50.60;;;;;;2337894;53;21924;-73
2022/05/23 06:59:29;;;;;;;3.10;0.90;;;22.80;50.50;;;;;;2568645;53;20956;-75
2022/05/23 07:01:56;;;;;;;3.05;1.15;;;22.80;50.40;;;;;;2550001;53;20967;-74
2022/05/23 07:04:22;;;;;;;3.00;1.00;;;22.80;50.40;;;;;;2560764;53;21047;-74
2022/05/23 07:12:23;;;;;;;4.37;1.12;;;23.00;50.70;;;;;;2339111;54;21019;-77
2022/05/23 07:14:54;;;;;;;3.53;1.20;;;23.10;50.80;;;;;;2404259;54;20976;-74
2022/05/23 07:17:21;;;;;;;2.85;1.05;;;23.20;51.00;;;;;;2334122;54;21096;-76
2022/05/23 07:19:48;;;;;;;2.83;1.20;;;23.40;51.20;;;;;;2318554;54;21717;-76
2022/05/23 07:22:15;;;;;;;2.90;1.12;;;23.50;51.30;;;;;;2332860;54;20955;-75
2022/05/23 07:24:44;;;;;;;3.15;1.25;;;23.60;51.20;;;;;;2338812;54;20991;-74
2022/05/23 07:27:12;;;;;;;2.62;1.00;;;23.70;51.10;;;;;;2329464;54;20952;-78
2022/05/23 07:29:41;;;;;;;2.55;1.00;;;23.80;50.90;;;;;;2401123;54;20963;-77
2022/05/23 07:32:08;;;;;;;4.22;1.23;;;23.90;50.90;;;;;;2323601;54;20927;-75
2022/05/23 07:34:35;;;;;;;3.65;1.27;;;24.00;50.70;;;;;;2464239;53;20930;-75
2022/05/23 07:37:05;;;;;;;1.98;0.90;;;24.00;50.50;;;;;;2560218;53;21450;-75
2022/05/23 07:39:34;;;;;;;2.42;0.98;;;24.10;50.60;;;;;;2523789;53;20984;-74
2022/05/23 07:42:01;;;;;;;3.70;1.23;;;24.20;50.60;;;;;;2320680;54;21035;-74
2022/05/23 07:44:28;;;;;;;2.92;0.90;;;24.20;50.50;;;;;;2348909;53;21045;-75
2022/05/23 07:46:55;;;;;;;3.22;1.20;;;24.30;50.40;;;;;;2565206;53;20939;-77
2022/05/23 07:49:21;;;;;;;3.47;1.10;;;24.30;50.40;;;;;;2329047;53;21380;-75
2022/05/23 07:51:48;;;;;;;2.83;1.20;;;24.40;50.40;;;;;;2339520;54;20907;-78
2022/05/23 08:02:29;;;;;;;4.68;1.40;;;24.60;50.00;;;;;;2554724;53;20992;-73
2022/05/23 08:04:55;;;;;;;3.33;1.45;;;24.60;49.80;;;;;;2521584;53;21270;-75
2022/05/23 08:07:22;;;;;;;2.60;1.35;;;24.60;49.80;;;;;;2336736;54;20904;-74
2022/05/23 08:09:48;;;;;;;4.05;1.62;;;24.60;49.70;;;;;;2337108;54;21037;-74
2022/05/23 08:12:15;;;;;;;2.45;1.20;;;24.50;49.70;;;;;;2324356;54;20975;-74
2022/05/23 08:14:41;;;;;;;3.42;1.45;;;24.50;49.80;;;;;;2337749;54;20987;-74
2022/05/23 08:17:09;;;;;;;4.62;1.33;;;24.50;49.90;;;;;;2349601;53;20931;-74
2022/05/23 08:19:36;;;;;;;3.80;1.30;;;24.40;49.80;;;;;;2336793;54;20935;-74
2022/05/23 08:22:03;;;;;;;2.70;1.23;;;24.40;50.00;;;;;;2338355;54;20987;-74
2022/05/23 08:24:30;;;;;;;3.17;1.37;;;24.40;50.10;;;;;;2386296;53;20964;-75
2022/05/23 08:26:56;;;;;;;4.28;1.50;;;24.40;50.10;;;;;;2330599;54;21019;-74
2022/05/23 08:29:22;;;;;;;2.78;1.40;;;24.40;50.10;;;;;;2336783;54;21012;-78
2022/05/23 08:31:49;;;;;;;2.90;1.27;;;24.40;50.20;;;;;;2324705;54;20912;-77
2022/05/23 08:34:16;;;;;;;3.33;1.30;;;24.30;50.20;;;;;;2369136;54;20987;-73
2022/05/23 08:36:43;;;;;;;3.12;1.40;;;24.30;50.30;;;;;;2396802;53;20948;-74
2022/05/23 08:39:10;;;;;;;3.17;1.33;;;24.40;50.50;;;;;;2339147;54;20939;-78
2022/05/23 08:41:41;;;;;;;3.60;1.12;;;24.40;50.60;;;;;;2358915;53;20991;-73
2022/05/23 08:46:46;;;;;;;3.70;1.05;;;24.40;50.50;;;;;;2324842;54;20967;-76
2022/05/23 08:50:59;;;;;;;2.22;0.82;;;24.50;50.60;;;;;;2338606;54;20987;-74
2022/05/23 08:53:54;;;;;;;2.92;1.12;;;24.60;50.90;;;;;;2319868;54;21973;-75
2022/05/23 08:56:37;;;;;;;3.25;1.20;;;24.70;51.20;;;;;;2305621;54;21049;-75
2022/05/23 08:59:09;;;;;;;2.30;1.02;;;24.80;51.20;;;;;;2320295;54;21558;-75
2022/05/23 09:01:48;;;;;;;2.05;0.98;;;24.80;51.20;;;;;;2401137;54;20971;-74
2022/05/23 09:04:43;;;;;;;2.53;1.10;;;25.00;51.80;;;;;;2283324;54;21029;-76
2022/05/23 09:07:20;;;;;;;2.60;1.08;;;25.00;51.10;;;;;;2314953;54;20919;-74
2022/05/23 09:09:47;;;;;;;2.22;0.98;;;25.20;51.10;;;;;;2314923;54;21468;-73
2022/05/23 09:12:15;;;;;;;2.87;1.37;;;25.20;50.80;;;;;;2317039;54;20955;-73
2022/05/23 09:14:42;;;;;;;3.10;1.20;;;25.30;50.70;;;;;;2317537;53;21012;-75
2022/05/23 09:17:23;;;;;;;3.20;1.42;;;25.30;50.60;;;;;;2332496;53;21008;-75
2022/05/23 09:20:09;;;;;;;2.60;1.30;;;25.40;50.60;;;;;;2332605;54;21013;-76
2022/05/23 09:23:11;;;;;;;2.65;1.25;;;25.40;50.30;;;;;;2337405;54;21103;-76
2022/05/23 09:25:43;;;;;;;3.10;1.40;;;25.50;50.30;;;;;;2333205;54;20946;-74
2022/05/23 09:28:34;;;;;;;3.05;1.50;;;25.50;50.20;;;;;;2416333;54;20936;-77
2022/05/23 09:31:18;;;;;;;2.67;1.30;;;25.50;50.00;;;;;;2401448;53;20925;-76
2022/05/23 09:33:47;;;;;;;4.65;1.52;;;25.60;49.90;;;;;;2342988;54;20965;-74
2022/05/23 09:36:19;;;;;;;3.85;1.60;;;25.60;49.70;;;;;;2338494;54;21046;-74
2022/05/23 09:38:47;;;;;;;;;;;25.60;49.40;;;;;;2442804;53;21032;-76
2022/05/23 09:47:45;;;;;;;2.67;1.23;;;25.50;49.00;;;;;;2315953;54;20943;-73
2022/05/23 09:50:38;;;;;;;2.90;1.20;;;25.50;49.00;;;;;;2319709;54;20987;-74
2022/05/23 09:53:17;;;;;;;2.75;1.27;;;25.40;49.60;;;;;;2315456;54;20998;-75
2022/05/23 09:55:44;;;;;;;3.05;1.52;;;25.30;49.80;;;;;;2556481;54;20944;-74
2022/05/23 09:58:11;;;;;;;2.55;1.05;;;25.20;49.80;;;;;;2444888;54;20923;-73
2022/05/23 10:00:39;;;;;;;3.12;1.12;;;25.10;50.00;;;;;;2315679;54;20947;-74
2022/05/23 10:03:15;;;;;;;2.92;1.40;;;25.10;50.30;;;;;;2349359;55;21098;-74
2022/05/23 10:05:43;;;;;;;3.35;1.33;;;25.00;50.60;;;;;;2345175;54;21461;-74
2022/05/23 10:08:29;;;;;;;2.97;1.48;;;24.90;50.80;;;;;;2537686;53;21064;-77
2022/05/23 10:11:00;;;;;;;3.53;1.37;;;24.90;51.10;;;;;;2342868;54;21032;-75
2022/05/23 10:13:30;;;;;;;2.65;1.27;;;24.80;51.10;;;;;;2342384;54;21419;-74
2022/05/23 10:16:01;;;;;;;3.47;1.37;;;24.80;51.40;;;;;;2342471;54;21470;-78
2022/05/23 10:18:33;;;;;;;3.53;1.60;;;24.60;51.20;;;;;;2342624;54;20981;-75
2022/05/23 10:21:00;;;;;;;;;;;24.60;51.40;;;;;;2345967;54;25362;-75
2022/05/23 10:23:30;;;;;;;3.22;1.75;;;24.60;51.40;;;;;;2342053;54;20111;-76
2022/05/23 10:26:19;;;;;;;4.12;1.92;;;24.40;51.20;;;;;;2421382;53;20969;-75
2022/05/23 10:28:50;;;;;;;3.95;1.90;;;24.40;51.70;;;;;;2342325;54;21316;-75
2022/05/23 10:31:32;;;;;;;3.72;1.75;;;24.20;51.30;;;;;;2548468;53;20986;-76
2022/05/23 10:34:02;;;;;;;3.05;1.50;;;24.10;51.50;;;;;;2338653;54;20973;-79
2022/05/23 10:36:30;;;;;;;3.05;1.50;;;24.00;51.40;;;;;;2341742;54;21608;-76
2022/05/23 10:44:32;;;;;;;3.87;1.60;;;23.80;51.90;;;;;;2342545;54;20952;-76
2022/05/23 10:47:09;;;;;;;4.57;1.40;;;23.70;52.20;;;;;;2321414;55;21076;-77
2022/05/23 10:49:56;;;;;;;5.87;1.50;;;23.60;52.20;;;;;;2343038;54;20960;-75
2022/05/23 10:52:30;;;;;;;3.92;1.73;;;23.50;52.30;;;;;;2342626;54;20981;-76
2022/05/23 10:55:16;;;;;;;3.70;1.33;;;23.40;53.20;;;;;;2341996;54;21012;-78
2022/05/23 11:00:47;;;;;;;4.53;1.50;;;23.40;53.40;;;;;;2316300;55;21528;-76
2022/05/23 11:03:21;;;;;;;4.85;1.62;;;23.30;53.00;;;;;;2287782;54;2259697;-75
2022/05/23 11:06:10;;;;;;;4.20;1.80;;;23.20;53.20;;;;;;2381209;53;20989;-76
2022/05/23 11:08:53;;;;;;;5.35;2.28;;;23.20;54.10;;;;;;2512829;53;20937;-75
2022/05/23 11:11:39;;;;;;;5.03;2.30;;;23.20;54.20;;;;;;2340265;54;21034;-76
2022/05/23 11:14:18;;;;;;;6.72;2.30;;;23.20;54.50;;;;;;2318257;54;20971;-78
2022/05/23 11:19:27;;;;;;;7.28;2.53;;;23.10;54.40;;;;;;2318137;55;21037;-75
2022/05/23 11:25:04;;;;;;;3.55;1.67;;;23.00;54.60;;;;;;2344059;54;20937;-75
2022/05/23 11:35:59;;;;;;;3.67;1.58;;;22.90;55.00;;;;;;2342802;54;21016;-76
2022/05/23 11:38:27;;;;;;;3.00;1.48;;;22.90;55.30;;;;;;2323096;55;21267;-75
2022/05/23 11:41:09;;;;;;;3.58;1.73;;;23.00;55.60;;;;;;2341873;54;20961;-75
2022/05/23 11:43:35;;;;;;;3.67;1.40;;;23.00;56.40;;;;;;2545076;53;21017;-75
2022/05/23 11:46:03;;;;;;;3.15;1.50;;;23.00;55.80;;;;;;2322371;54;20985;-75
2022/05/23 11:48:55;;;;;;;3.95;1.60;;;23.10;56.00;;;;;;2332577;54;21028;-76
2022/05/23 11:51:36;;;;;;;4.50;1.60;;;23.20;56.70;;;;;;2315854;54;20998;-75
2022/05/23 12:00:54;;;;;;;4.10;1.50;;;23.30;56.50;;;;;;2547574;54;21513;-76
2022/05/23 12:03:20;;;;;;;2.92;1.10;;;23.30;56.70;;;;;;2316871;54;20964;-76
2022/05/23 12:05:48;;;;;;;6.95;2.30;;;23.80;55.90;;;;;;2361108;54;20951;-74
2022/05/23 12:08:28;;;;;;;4.35;1.90;;;23.90;56.10;;;;;;2304872;55;20877;-75
2022/05/23 12:10:58;;;;;;;6.70;1.90;;;24.00;57.00;;;;;;2297719;55;20987;-75
2022/05/23 12:13:38;;;;;;;4.65;1.77;;;24.10;56.10;;;;;;2540811;53;21444;-75
2022/05/23 12:17:38;;;;;;;3.75;1.70;;;24.20;56.40;;;;;;2351774;53;21016;-75
2022/05/23 12:20:21;;;;;;;4.93;1.80;;;24.30;56.20;;;;;;2561722;53;20959;-75
2022/05/23 12:24:27;;;;;;;3.42;2.00;;;24.40;56.20;;;;;;2337678;54;20945;-75
2022/05/23 12:27:26;;;;;;;4.25;1.80;;;24.50;56.70;;;;;;2338517;54;20914;-75
2022/05/23 12:30:35;;;;;;;3.78;1.83;;;24.70;57.30;;;;;;2338715;54;20908;-75
2022/05/23 12:33:08;;;;;;;3.95;2.00;;;24.80;57.50;;;;;;2297041;55;21047;-75
2022/05/23 12:36:09;;;;;;;5.45;2.08;;;25.00;57.50;;;;;;2314446;55;20999;-75
2022/05/23 12:38:45;;;;;;;6.37;2.05;;;25.20;57.60;;;;;;2319882;54;20904;-76
2022/05/23 12:47:20;;;;;;;3.62;2.00;;;25.40;57.50;;;;;;2323028;54;21017;-75
2022/05/23 12:50:05;;;;;;;3.22;1.50;;;25.70;57.50;;;;;;2338975;54;21324;-74
2022/05/23 12:54:54;;;;;;;3.80;2.08;;;26.20;57.60;;;;;;2338701;54;20987;-77
2022/05/23 13:01:01;;;;;;;6.72;2.10;;;26.40;57.40;;;;;;2343058;53;20908;-76
2022/05/23 13:03:36;;;;;;;3.75;1.73;;;26.70;57.30;;;;;;2338642;54;21031;-75
2022/05/23 13:08:19;;;;;;;5.10;2.10;;;27.20;56.40;;;;;;2334784;54;21355;-75
2022/05/23 13:10:50;;;;;;;4.22;2.08;;;27.40;56.10;;;;;;2337794;54;20955;-73
2022/05/23 13:13:32;;;;;;;4.37;1.98;;;27.60;55.60;;;;;;2583917;53;20920;-75
2022/05/23 13:16:14;;;;;;;6.20;2.28;;;27.70;55.50;;;;;;2338512;54;20998;-79
2022/05/23 13:24:14;;;;;;;5.10;2.47;;;28.10;54.60;;;;;;2371719;53;20928;-73
2022/05/23 13:26:40;;;;;;;5.55;2.15;;;28.20;54.30;;;;;;2339114;54;20927;-75
2022/05/23 13:29:11;;;;;;;5.00;2.22;;;28.30;54.10;;;;;;2370290;53;20940;-77
2022/05/23 13:31:38;;;;;;;4.80;2.50;;;28.40;53.40;;;;;;2338716;54;20916;-74
2022/05/23 13:34:10;;;;;;;4.25;1.98;;;28.40;53.20;;;;;;2536550;54;21021;-74
2022/05/23 13:36:49;;;;;;;3.83;1.87;;;28.50;53.10;;;;;;2341534;54;21418;-74
2022/05/23 13:39:18;;;;;;;6.10;2.28;;;28.60;52.60;;;;;;2323435;54;20948;-74
2022/05/23 13:41:44;;;;;;;5.62;2.30;;;28.70;52.50;;;;;;2332994;54;20933;-74
2022/05/23 13:44:28;;;;;;;4.93;2.00;;;28.80;52.40;;;;;;2328188;54;20891;-75
2022/05/23 13:47:00;;;;;;;6.10;2.62;;;28.90;52.00;;;;;;2338990;54;20930;-74
2022/05/23 13:49:33;;;;;;;5.97;2.60;;;29.00;51.60;;;;;;2425028;53;20927;-75
2022/05/23 13:52:07;;;;;;;4.87;2.30;;;29.10;51.50;;;;;;2339075;54;21019;-74
2022/05/23 13:54:39;;;;;;;4.10;2.28;;;29.20;51.00;;;;;;2372325;53;20991;-74
2022/05/23 13:57:12;;;;;;;;;;;29.30;50.90;;;;;;2342488;54;20916;-77
2022/05/23 13:59:47;;;;;;;4.90;1.80;;;29.40;51.00;;;;;;2338821;54;20193;-74
2022/05/23 14:02:17;;;;;;;7.12;2.60;;;29.50;50.60;;;;;;2338732;54;20999;-75
2022/05/23 14:04:43;;;;;;;4.45;1.83;;;29.60;50.30;;;;;;2338802;54;20904;-76
2022/05/23 14:07:15;;;;;;;5.47;2.40;;;29.70;50.00;;;;;;2338539;54;20963;-75
2022/05/23 14:09:48;;;;;;;6.82;2.40;;;29.80;49.40;;;;;;2584062;53;21451;-74
2022/05/23 14:12:23;;;;;;;5.47;2.00;;;29.90;49.60;;;;;;2322963;55;21066;-77
2022/05/23 14:14:55;;;;;;;4.12;2.12;;;29.90;49.30;;;;;;2341418;54;21935;-74
2022/05/23 14:17:32;;;;;;;4.13;1.87;;;30.00;49.20;;;;;;2377002;53;21388;-73
2022/05/23 14:20:39;;;;;;;3.47;1.90;;;30.10;49.00;;;;;;2338834;54;20986;-77
2022/05/23 14:23:30;;;;;;;5.82;2.20;;;30.10;48.90;;;;;;2338727;54;20920;-74
2022/05/23 14:26:06;;;;;;;4.30;2.08;;;30.20;48.60;;;;;;2338649;54;20928;-74
2022/05/23 14:28:47;;;;;;;4.68;1.85;;;30.30;48.40;;;;;;2562766;53;20904;-74
2022/05/23 14:31:32;;;;;;;6.00;2.10;;;30.40;48.00;;;;;;2323928;54;21035;-78
2022/05/23 14:34:02;;;;;;;3.97;1.80;;;30.40;47.70;;;;;;2338160;54;20900;-71
2022/05/23 14:36:28;;;;;;;4.85;2.10;;;30.40;47.80;;;;;;2338317;54;21031;-69
2022/05/23 14:38:59;;;;;;;3.58;2.00;;;30.40;47.60;;;;;;2338721;54;21817;-70
2022/05/23 14:41:28;;;;;;;3.87;1.87;;;30.40;47.30;;;;;;2338822;54;20987;-69
2022/05/23 14:44:42;;;;;;;4.45;1.83;;;30.40;47.40;;;;;;2337666;54;21277;-70
2022/05/23 14:47:58;;;;;;;5.20;1.90;;;30.40;46.50;;;;;;2561150;53;21122;-70
2022/05/23 14:50:42;;;;;;;4.85;1.95;;;30.40;46.10;;;;;;2342079;54;20960;-70
2022/05/23 14:56:08;;;;;;;5.25;1.80;;;30.30;46.40;;;;;;2576208;53;21032;-70